Time;durP1;ratioP1;P1;durP2;ratioP2;P2;SDS_P1;SDS_P2;PMS_P1;PMS_P2;Temp;Humidity;BMP_temperature;BMP_pressure;BME280_temperature;BME280_humidity;BME280_pressure;Samples;Min_cycle;Max_cycle;Signal;HPM_P1;HPM_P2
2024/01/21 00:01:03;;;;;;;;;9.25;8.25;;;;;19.01;35.61;102075.72;6368863;22;45366;-76
2024/01/21 00:03:29;;;;;;;;;12.00;8.75;;;;;19.01;35.90;102066.00;6368190;22;45263;-76
2024/01/21 00:05:54;;;;;;;;;10.50;10.50;;;;;18.99;35.63;102062.69;6368695;22;48082;-75
2024/01/21 00:08:20;;;;;;;;;11.00;11.00;;;;;19.04;35.35;102070.19;6368582;22;45223;-76
2024/01/21 00:10:45;;;;;;;;;11.00;10.50;;;;;19.05;35.43;102079.75;6368983;22;45166;-75
2024/01/21 00:13:10;;;;;;;;;14.00;11.25;;;;;19.05;35.40;102066.56;6368647;22;45202;-75
2024/01/21 00:15:35;;;;;;;;;9.00;9.00;;;;;19.02;35.52;102075.56;6368572;22;51692;-76
2024/01/21 00:18:01;;;;;;;;;11.00;11.00;;;;;19.05;35.56;102070.06;6368186;22;47392;-75
2024/01/21 00:20:30;;;;;;;;;9.25;9.00;;;;;18.89;35.63;102040.69;6368803;22;45213;-77
2024/01/21 00:22:56;;;;;;;;;11.50;10.00;;;;;19.07;35.02;102069.94;6368007;22;46004;-76
2024/01/21 00:25:22;;;;;;;;;12.00;9.75;;;;;19.09;35.36;102061.88;6367293;22;45319;-74
2024/01/21 00:27:47;;;;;;;;;10.25;10.00;;;;;19.08;35.57;102053.13;6368569;22;45302;-75
2024/01/21 00:30:14;;;;;;;;;11.75;10.00;;;;;19.07;35.63;102035.66;6339029;22;45357;-76
2024/01/21 00:32:39;;;;;;;;;10.00;9.50;;;;;19.12;35.59;102032.63;6367014;22;45452;-76
2024/01/21 00:35:05;;;;;;;;;14.25;13.00;;;;;19.02;35.39;102022.81;6338246;22;50106;-75
2024/01/21 00:37:31;;;;;;;;;13.50;12.00;;;;;19.11;35.52;102030.94;6368173;22;45215;-75
2024/01/21 00:39:56;;;;;;;;;5.50;4.00;;;;;19.12;35.47;102028.19;6340153;22;45449;-75
2024/01/21 00:42:21;;;;;;;;;14.50;11.75;;;;;19.08;35.45;102024.09;6368213;22;45169;-73
2024/01/21 00:44:46;;;;;;;;;9.50;9.50;;;;;19.11;35.99;102023.84;6368417;22;52315;-73
2024/01/21 00:47:12;;;;;;;;;10.00;9.00;;;;;19.11;35.73;102025.66;6367860;22;48790;-76
2024/01/21 00:49:41;;;;;;;;;11.00;11.00;;;;;19.10;35.88;102024.81;6368932;22;45280;-75
2024/01/21 00:52:06;;;;;;;;;11.25;11.00;;;;;19.05;35.61;102027.84;6367994;22;45453;-75
2024/01/21 00:54:32;;;;;;;;;10.75;9.75;;;;;19.09;35.90;102035.50;6368416;22;45357;-76
2024/01/21 00:56:58;;;;;;;;;12.50;9.00;;;;;19.07;35.91;102028.53;6368412;22;45288;-75
2024/01/21 00:59:23;;;;;;;;;10.50;9.75;;;;;19.07;36.12;102022.47;6368601;22;45450;-73
2024/01/21 01:01:48;;;;;;;;;7.50;7.25;;;;;19.07;35.74;102020.63;6367445;22;46280;-72
2024/01/21 01:04:14;;;;;;;;;10.00;8.25;;;;;19.06;35.83;102015.50;6367506;22;45284;-76
2024/01/21 01:06:39;;;;;;;;;11.00;10.00;;;;;19.06;35.86;102018.13;6368382;22;45264;-75
2024/01/21 01:09:04;;;;;;;;;13.75;10.25;;;;;19.00;36.12;102002.81;6367800;22;50232;-76
2024/01/21 01:11:30;;;;;;;;;11.00;11.00;;;;;19.05;36.07;102004.09;6368336;22;51428;-76
2024/01/21 01:13:56;;;;;;;;;9.50;8.50;;;;;19.04;36.02;102013.00;6368168;22;45343;-76
2024/01/21 01:16:22;;;;;;;;;11.00;9.00;;;;;19.00;36.05;102011.56;6339431;22;45323;-76
2024/01/21 01:18:48;;;;;;;;;11.00;9.00;;;;;18.96;36.28;101978.53;6368316;22;45412;-76
2024/01/21 01:21:14;;;;;;;;;10.00;9.50;;;;;19.04;35.95;101985.78;6367794;22;46937;-76
2024/01/21 01:23:39;;;;;;;;;13.25;8.00;;;;;18.99;36.06;101972.16;6368335;22;45249;-76
2024/01/21 01:26:07;;;;;;;;;10.75;10.50;;;;;19.04;35.91;101984.00;6368206;22;45318;-73
2024/01/21 01:28:33;;;;;;;;;9.00;9.00;;;;;19.04;36.17;101972.59;6339928;22;45270;-76
2024/01/21 01:30:58;;;;;;;;;7.00;7.00;;;;;19.05;36.27;101974.25;6367786;22;46044;-76
2024/01/21 01:33:24;;;;;;;;;10.00;9.00;;;;;19.00;35.93;101979.94;6368331;22;45291;-76
2024/01/21 01:35:50;;;;;;;;;13.50;11.50;;;;;19.05;36.00;101974.25;6368239;22;45283;-76
2024/01/21 01:38:15;;;;;;;;;12.50;9.50;;;;;18.96;36.12;101949.53;6368460;22;45439;-77
2024/01/21 01:40:41;;;;;;;;;12.50;10.50;;;;;19.02;35.94;101962.16;6367853;22;47239;-75
2024/01/21 01:43:06;;;;;;;;;11.25;9.50;;;;;19.03;36.33;101970.91;6367887;22;45199;-73
2024/01/21 01:45:31;;;;;;;;;8.25;8.00;;;;;19.04;35.97;101972.59;6367652;22;45272;-75
2024/01/21 01:47:57;;;;;;;;;12.75;12.00;;;;;19.03;36.10;101970.91;6368501;22;45396;-75
2024/01/21 01:50:23;;;;;;;;;10.25;8.75;;;;;19.01;36.05;101951.75;6368312;22;46197;-75
2024/01/21 01:52:50;;;;;;;;;12.25;7.50;;;;;18.93;36.14;101940.06;6368334;22;45331;-76
2024/01/21 01:55:16;;;;;;;;;8.75;7.75;;;;;19.03;35.88;101937.47;6368163;22;45268;-75
2024/01/21 01:57:42;;;;;;;;;10.00;10.00;;;;;19.03;35.87;101926.06;6367997;22;45426;-75
2024/01/21 02:00:08;;;;;;;;;9.00;8.75;;;;;19.04;35.90;101918.03;6368554;22;45419;-75
2024/01/21 02:02:34;;;;;;;;;10.75;9.25;;;;;19.05;36.02;101921.50;6367614;22;45846;-76
2024/01/21 02:05:04;;;;;;;;;8.50;8.50;;;;;18.98;35.74;101938.81;6369282;22;45282;-75
2024/01/21 02:07:30;;;;;;;;;10.50;9.50;;;;;19.04;35.76;101976.06;6369202;22;45442;-75
2024/01/21 02:09:55;;;;;;;;;8.00;8.00;;;;;19.06;35.73;101987.31;6370642;22;45347;-75
2024/01/21 02:12:20;;;;;;;;;9.25;8.00;;;;;19.04;35.95;101991.91;6387656;22;45154;-74
2024/01/21 02:14:46;;;;;;;;;13.00;9.50;;;;;19.05;35.91;101987.44;6368251;22;45272;-75
2024/01/21 02:17:11;;;;;;;;;9.50;8.25;;;;;19.00;36.07;101994.91;6367965;22;45366;-75
2024/01/21 02:19:38;;;;;;;;;9.75;8.50;;;;;19.06;35.94;101997.03;6368250;22;45970;-75
2024/01/21 02:22:04;;;;;;;;;12.00;9.00;;;;;18.99;35.71;101993.25;6367402;22;45266;-75
2024/01/21 02:24:31;;;;;;;;;13.50;8.25;;;;;19.05;35.91;102004.09;6368111;22;45176;-75
2024/01/21 02:26:57;;;;;;;;;8.75;8.00;;;;;19.07;35.70;101994.25;6367351;22;45418;-75
2024/01/21 02:29:23;;;;;;;;;9.50;7.75;;;;;19.06;35.93;101989.13;6367758;22;45160;-76
2024/01/21 02:31:49;;;;;;;;;10.25;10.00;;;;;18.97;35.93;101963.53;6367369;22;45209;-75
2024/01/21 02:34:14;;;;;;;;;9.25;9.25;;;;;19.03;36.02;101971.75;6367780;22;45273;-76
2024/01/21 02:36:39;;;;;;;;;8.00;7.00;;;;;19.04;35.94;101970.81;6368134;22;45275;-75
2024/01/21 02:39:05;;;;;;;;;8.75;8.75;;;;;19.04;35.86;101973.44;6367722;22;52568;-74
2024/01/21 02:41:30;;;;;;;;;9.75;9.75;;;;;18.97;35.68;101967.00;6366843;22;58863;-75
2024/01/21 02:43:55;;;;;;;;;13.00;9.50;;;;;18.95;35.88;101953.94;6367249;22;54925;-75
2024/01/21 02:46:21;;;;;;;;;10.00;10.00;;;;;19.03;35.71;101961.19;6367714;22;45589;-75
2024/01/21 02:48:46;;;;;;;;;10.00;10.00;;;;;19.05;35.74;101964.53;6368034;22;46158;-75
2024/01/21 02:51:13;;;;;;;;;8.00;8.00;;;;;19.01;35.89;101949.97;6366956;22;67216;-74
2024/01/21 02:53:38;;;;;;;;;10.50;9.00;;;;;19.03;36.10;101963.00;6367671;22;45324;-76
2024/01/21 02:56:04;;;;;;;;;6.00;6.00;;;;;19.04;35.86;101977.88;6367471;22;45387;-76
2024/01/21 02:58:29;;;;;;;;;10.75;9.75;;;;;19.03;36.03;101963.84;6367385;22;47278;-73
2024/01/21 03:00:54;;;;;;;;;7.50;6.75;;;;;19.02;36.18;101954.25;6367649;22;50098;-76
2024/01/21 03:03:20;;;;;;;;;7.00;6.25;;;;;19.02;35.88;101953.44;6367485;22;49324;-77
2024/01/21 03:05:45;;;;;;;;;10.00;10.00;;;;;19.02;35.96;101938.41;6338952;22;48660;-72
2024/01/21 03:08:11;;;;;;;;;9.25;7.00;;;;;19.01;35.86;101926.22;6367154;22;61711;-74
2024/01/21 03:10:36;;;;;;;;;8.25;8.25;;;;;19.02;36.09;101925.22;6366925;22;45343;-76
2024/01/21 03:13:02;;;;;;;;;9.75;8.50;;;;;19.02;35.86;101922.59;6367723;22;45191;-76
2024/01/21 03:15:27;;;;;;;;;9.00;7.75;;;;;19.03;36.20;101916.38;6368028;22;45286;-76
2024/01/21 03:17:53;;;;;;;;;11.00;8.00;;;;;19.04;35.82;101910.13;6367186;22;45952;-75
2024/01/21 03:20:18;;;;;;;;;10.00;9.00;;;;;19.01;35.93;101901.63;6367190;22;45225;-75
2024/01/21 03:22:43;;;;;;;;;9.75;9.25;;;;;19.03;36.17;101895.25;6367204;22;45216;-76
2024/01/21 03:25:09;;;;;;;;;11.75;10.00;;;;;19.02;36.01;101898.03;6367480;22;45217;-75
2024/01/21 03:27:34;;;;;;;;;9.25;8.50;;;;;19.02;35.95;101901.50;6368293;22;46712;-75
2024/01/21 03:29:59;;;;;;;;;7.50;7.50;;;;;18.98;36.10;101886.91;6368669;22;55597;-76
2024/01/21 03:32:24;;;;;;;;;12.50;9.50;;;;;19.02;36.03;101895.41;6368596;22;49629;-75
2024/01/21 03:34:51;;;;;;;;;9.25;8.00;;;;;19.02;36.19;101893.56;6368511;22;55493;-76
2024/01/21 03:37:18;;;;;;;;;8.00;7.50;;;;;19.02;35.89;101903.31;6368523;22;46041;-74
2024/01/21 03:39:43;;;;;;;;;11.25;9.00;;;;;19.00;36.13;101910.50;6368370;22;45311;-76
2024/01/21 03:42:09;;;;;;;;;11.25;8.25;;;;;19.00;35.90;101935.09;6368861;22;45288;-75
2024/01/21 03:44:34;;;;;;;;;7.50;6.50;;;;;19.02;36.08;101932.34;6369032;22;45416;-76
2024/01/21 03:47:00;;;;;;;;;8.25;7.00;;;;;19.00;35.98;101944.78;6368399;22;47117;-75
2024/01/21 03:49:27;;;;;;;;;8.25;8.00;;;;;19.03;36.15;101960.38;6368617;22;45246;-76
2024/01/21 03:51:52;;;;;;;;;10.00;8.75;;;;;19.03;36.12;101948.00;6368912;22;45165;-76
2024/01/21 03:54:18;;;;;;;;;8.00;8.00;;;;;18.99;36.36;101941.34;6367840;22;56094;-76
2024/01/21 03:56:44;;;;;;;;;7.75;7.25;;;;;19.00;36.31;101950.06;6368705;22;45257;-76
2024/01/21 03:59:09;;;;;;;;;8.75;7.00;;;;;18.96;36.08;101952.16;6368331;22;45365;-75
2024/01/21 04:01:41;;;;;;;;;9.00;9.00;;;;;19.03;35.89;101952.44;6340490;22;45299;-75
2024/01/21 04:04:08;;;;;;;;;8.25;8.00;;;;;18.93;35.97;101944.50;6368621;22;45427;-75
2024/01/21 04:06:39;;;;;;;;;10.75;7.00;;;;;19.04;35.86;101968.16;6368538;22;45256;-74
2024/01/21 04:09:04;;;;;;;;;9.00;9.00;;;;;19.01;35.95;101962.31;6368207;22;45195;-76
2024/01/21 04:11:29;;;;;;;;;6.25;6.00;;;;;19.03;35.87;101963.00;6368495;22;48017;-76
2024/01/21 04:13:54;;;;;;;;;7.50;7.50;;;;;19.03;35.93;101961.19;6368567;22;54210;-76
2024/01/21 04:16:20;;;;;;;;;7.50;7.00;;;;;18.97;35.75;101942.44;6367829;22;53703;-74
2024/01/21 04:18:47;;;;;;;;;6.25;5.75;;;;;19.04;35.96;101946.22;6368320;22;45220;-76
2024/01/21 04:21:13;;;;;;;;;7.25;7.25;;;;;19.03;36.01;101936.63;6369045;22;45280;-76
2024/01/21 04:23:38;;;;;;;;;9.50;8.75;;;;;18.99;36.10;101916.75;6368220;22;45350;-76
2024/01/21 04:26:03;;;;;;;;;7.25;7.25;;;;;19.03;36.11;101923.44;6368443;22;50422;-76
2024/01/21 04:28:29;;;;;;;;;8.00;7.50;;;;;19.03;35.97;101924.28;6367788;22;59012;-76
2024/01/21 04:30:54;;;;;;;;;8.75;8.00;;;;;19.02;36.10;101917.31;6368875;22;45315;-73
2024/01/21 04:33:19;;;;;;;;;8.25;6.00;;;;;19.01;36.12;101914.81;6368758;22;45437;-76
2024/01/21 04:35:45;;;;;;;;;8.25;7.00;;;;;19.01;35.81;101913.03;6368524;22;45349;-73
2024/01/21 04:38:10;;;;;;;;;7.75;7.75;;;;;19.01;35.95;101913.03;6367612;22;45320;-73
2024/01/21 04:40:37;;;;;;;;;11.50;7.25;;;;;18.92;36.22;101905.91;6368536;22;45316;-75
2024/01/21 04:43:02;;;;;;;;;7.00;7.00;;;;;19.01;35.94;101902.47;6368624;22;45350;-76
2024/01/21 04:45:27;;;;;;;;;8.00;8.00;;;;;18.98;35.74;101902.75;6368061;22;47394;-76
2024/01/21 04:47:53;;;;;;;;;9.75;9.00;;;;;18.99;36.28;101907.06;6368649;22;45301;-77
2024/01/21 04:50:18;;;;;;;;;6.25;6.25;;;;;18.93;35.96;101903.16;6368203;22;45233;-76
2024/01/21 04:52:43;;;;;;;;;11.50;9.00;;;;;18.93;36.22;101897.03;6366878;22;62012;-76
2024/01/21 04:55:09;;;;;;;;;7.00;7.00;;;;;19.00;36.12;101916.63;6368069;22;46156;-75
2024/01/21 04:57:34;;;;;;;;;10.50;9.00;;;;;19.01;35.87;101930.66;6368650;22;45312;-76
2024/01/21 04:59:59;;;;;;;;;7.25;6.25;;;;;19.00;35.82;101953.56;6368716;22;45326;-77
2024/01/21 05:02:25;;;;;;;;;8.25;6.50;;;;;19.01;36.01;101947.31;6368212;22;45501;-75
2024/01/21 05:04:50;;;;;;;;;8.00;5.50;;;;;18.99;35.86;101941.34;6368860;22;45311;-76
2024/01/21 05:07:15;;;;;;;;;6.75;6.75;;;;;18.92;36.10;101917.28;6368283;22;45268;-73
2024/01/21 05:09:40;;;;;;;;;6.25;6.25;;;;;18.98;35.98;101920.38;6368817;22;45233;-73
2024/01/21 05:12:06;;;;;;;;;10.25;7.25;;;;;18.99;36.30;101911.50;6339292;22;55622;-72
2024/01/21 05:14:32;;;;;;;;;9.75;9.00;;;;;18.99;36.17;101896.50;6339950;22;47127;-75
2024/01/21 05:16:57;;;;;;;;;7.00;7.00;;;;;19.00;36.12;101892.88;6368233;22;45256;-74
2024/01/21 05:19:22;;;;;;;;;9.75;7.25;;;;;18.99;35.99;101887.75;6368087;22;48444;-72
2024/01/21 05:21:48;;;;;;;;;6.50;6.00;;;;;18.97;36.00;101893.16;6367522;22;53692;-76
2024/01/21 05:24:13;;;;;;;;;8.50;7.50;;;;;18.98;35.83;101912.44;6367948;22;46072;-75
2024/01/21 05:26:45;;;;;;;;;7.75;7.00;;;;;18.99;36.02;101933.44;6368592;22;45200;-76
2024/01/21 05:29:11;;;;;;;;;5.25;5.25;;;;;18.98;35.99;101908.00;6368736;22;45203;-76
2024/01/21 05:31:36;;;;;;;;;9.00;8.00;;;;;18.98;36.13;101908.00;6367992;22;45188;-76
2024/01/21 05:34:02;;;;;;;;;8.75;7.50;;;;;18.97;36.14;101908.97;6368042;22;45222;-74
2024/01/21 05:36:27;;;;;;;;;8.00;8.00;;;;;18.98;36.04;101900.09;6367441;22;45206;-75
2024/01/21 05:38:52;;;;;;;;;5.75;5.75;;;;;18.98;36.10;101900.09;6367980;22;53542;-76
2024/01/21 05:41:18;;;;;;;;;5.00;5.00;;;;;18.98;35.97;101908.00;6367858;22;45099;-75
2024/01/21 05:43:43;;;;;;;;;5.25;4.75;;;;;18.99;35.95;101891.22;6367446;22;62698;-75
2024/01/21 05:46:08;;;;;;;;;6.25;4.50;;;;;18.98;36.08;101892.19;6367704;22;57161;-74
2024/01/21 05:48:34;;;;;;;;;6.00;6.00;;;;;18.99;36.08;101893.88;6367559;22;45104;-75
2024/01/21 05:51:00;;;;;;;;;7.25;7.25;;;;;19.00;36.04;101903.44;6368023;22;45332;-75
2024/01/21 05:53:25;;;;;;;;;6.00;6.00;;;;;18.89;36.16;101890.38;6367622;22;46330;-75
2024/01/21 05:55:51;;;;;;;;;6.50;6.50;;;;;19.00;35.90;101913.13;6368227;22;45379;-76
2024/01/21 05:58:16;;;;;;;;;6.50;5.00;;;;;19.01;36.11;101918.31;6367525;22;59790;-76
2024/01/21 06:00:41;;;;;;;;;7.00;6.25;;;;;19.01;35.92;101915.66;6368285;22;45384;-73
2024/01/21 06:03:06;;;;;;;;;6.25;6.25;;;;;19.02;36.12;101903.31;6368023;22;46103;-76
2024/01/21 06:05:32;;;;;;;;;4.00;4.00;;;;;19.01;35.78;101893.72;6367362;22;45330;-76
2024/01/21 06:07:57;;;;;;;;;8.75;8.00;;;;;19.02;35.79;101887.50;6368352;22;45263;-75
2024/01/21 06:10:22;;;;;;;;;6.00;5.00;;;;;18.97;36.13;101877.31;6367762;22;45527;-76
2024/01/21 06:12:48;;;;;;;;;7.25;6.75;;;;;19.01;36.00;101878.75;6368138;22;45348;-75
2024/01/21 06:15:13;;;;;;;;;8.00;5.25;;;;;19.02;36.10;101883.03;6367938;22;49350;-75
2024/01/21 06:17:39;;;;;;;;;10.00;7.00;;;;;19.01;35.86;101876.09;6368435;22;45350;-73
2024/01/21 06:20:06;;;;;;;;;7.25;5.75;;;;;18.97;36.11;101876.50;6367529;22;45470;-73
2024/01/21 06:22:31;;;;;;;;;6.50;6.50;;;;;19.00;36.17;101884.13;6367852;22;46333;-74
2024/01/21 06:24:57;;;;;;;;;6.75;6.75;;;;;18.95;35.99;101882.75;6367019;22;56448;-75
2024/01/21 06:27:22;;;;;;;;;7.00;6.25;;;;;18.65;36.32;101833.50;6339817;22;45214;-76
2024/01/21 06:29:48;;;;;;;;;6.50;6.00;;;;;19.01;36.01;101888.44;6339249;22;51428;-75
2024/01/21 06:32:13;;;;;;;;;6.50;4.25;;;;;18.99;36.17;101888.59;6368004;22;46153;-75
2024/01/21 06:34:38;;;;;;;;;7.50;7.00;;;;;19.00;36.13;101881.50;6367682;22;45220;-75
2024/01/21 06:37:04;;;;;;;;;7.00;7.00;;;;;18.95;36.25;101877.47;6367892;22;45306;-76
2024/01/21 06:39:29;;;;;;;;;7.25;5.25;;;;;19.00;36.37;101887.59;6368334;22;45269;-76
2024/01/21 06:41:54;;;;;;;;;5.75;5.00;;;;;19.01;36.37;101888.44;6367920;22;45256;-75
2024/01/21 06:44:20;;;;;;;;;7.25;5.25;;;;;19.00;36.11;101884.13;6367619;22;45335;-76
2024/01/21 06:46:45;;;;;;;;;9.00;7.00;;;;;18.99;36.07;101898.31;6367732;22;45274;-76
2024/01/21 06:49:10;;;;;;;;;7.75;7.50;;;;;19.00;36.18;101902.59;6367815;22;45295;-76
2024/01/21 06:51:53;;;;;;;;;6.25;5.25;;;;;18.99;36.24;101908.84;6367506;22;45923;-76
2024/01/21 06:54:19;;;;;;;;;7.50;6.00;;;;;18.99;36.16;101906.22;6367650;22;45263;-76
2024/01/21 06:56:45;;;;;;;;;6.75;6.25;;;;;19.00;36.27;101921.06;6367512;22;45312;-76
2024/01/21 06:59:10;;;;;;;;;6.00;6.00;;;;;18.99;36.32;101922.03;6367461;22;45399;-76
2024/01/21 07:01:36;;;;;;;;;6.75;6.00;;;;;18.97;36.44;101935.34;6367635;22;45315;-75
2024/01/21 07:04:01;;;;;;;;;6.00;6.00;;;;;18.97;36.16;101937.97;6367562;22;45350;-73
2024/01/21 07:06:26;;;;;;;;;6.50;6.00;;;;;18.96;35.97;101931.06;6367627;22;45267;-75
2024/01/21 07:08:52;;;;;;;;;6.00;6.00;;;;;18.93;36.00;101918.13;6367301;22;48559;-76
2024/01/21 07:11:17;;;;;;;;;8.75;8.75;;;;;18.99;36.30;101936.06;6367187;22;45954;-76
2024/01/21 07:13:42;;;;;;;;;7.50;6.25;;;;;19.00;36.14;101936.88;6367680;22;45270;-75
2024/01/21 07:16:07;;;;;;;;;7.25;7.25;;;;;19.00;36.29;101931.59;6367874;22;45252;-73
2024/01/21 07:18:33;;;;;;;;;9.50;7.25;;;;;18.93;36.38;101928.69;6366973;22;45252;-76
2024/01/21 07:20:58;;;;;;;;;5.00;5.00;;;;;18.95;36.34;101939.91;6366853;22;51048;-76
2024/01/21 07:23:24;;;;;;;;;8.00;6.50;;;;;18.98;36.45;101939.66;6367075;22;45282;-76
2024/01/21 07:25:49;;;;;;;;;7.25;5.50;;;;;18.99;36.04;101941.34;6367257;22;46499;-76
2024/01/21 07:28:15;;;;;;;;;7.00;7.00;;;;;18.98;36.34;101950.22;6367167;22;45181;-76
2024/01/21 07:30:41;;;;;;;;;8.00;6.25;;;;;18.97;36.32;101953.81;6367047;22;46217;-76
2024/01/21 07:33:07;;;;;;;;;7.00;6.25;;;;;18.98;36.31;101958.13;6367254;22;45183;-75
2024/01/21 07:35:32;;;;;;;;;6.00;5.00;;;;;18.99;36.00;101964.25;6367762;22;45269;-76
2024/01/21 07:37:58;;;;;;;;;6.00;6.00;;;;;19.00;36.39;101968.53;6367220;22;45404;-75
2024/01/21 07:40:23;;;;;;;;;10.25;6.25;;;;;19.00;36.06;101979.09;6366999;22;46056;-76
2024/01/21 07:42:48;;;;;;;;;7.75;6.75;;;;;19.00;35.92;101985.19;6367329;22;45610;-75
2024/01/21 07:45:14;;;;;;;;;5.25;5.00;;;;;19.01;36.22;101999.22;6367541;22;45158;-75
2024/01/21 07:47:40;;;;;;;;;6.00;5.00;;;;;19.01;36.21;101996.59;6366708;22;45480;-76
2024/01/21 07:50:05;;;;;;;;;8.00;6.25;;;;;19.00;36.18;101992.28;6367368;22;45350;-76
2024/01/21 07:52:31;;;;;;;;;6.00;6.00;;;;;19.00;36.03;101997.53;6367010;22;45337;-76
2024/01/21 07:54:57;;;;;;;;;5.25;5.25;;;;;19.02;36.21;102009.63;6367425;22;45299;-73
2024/01/21 07:57:22;;;;;;;;;5.25;5.25;;;;;19.03;36.25;102010.47;6367750;22;45318;-75
2024/01/21 07:59:47;;;;;;;;;6.75;5.00;;;;;19.03;36.11;102021.03;6367486;22;46004;-75
2024/01/21 08:02:13;;;;;;;;;5.50;5.50;;;;;19.00;36.30;102010.72;6366613;22;45364;-76
2024/01/21 08:04:38;;;;;;;;;7.00;5.25;;;;;19.02;36.33;102016.75;6367036;22;45334;-75
2024/01/21 08:07:04;;;;;;;;;6.00;5.50;;;;;19.03;36.28;102023.66;6367456;22;45402;-75
2024/01/21 08:09:29;;;;;;;;;5.50;5.00;;;;;19.03;36.00;102021.03;6366808;22;47152;-75
2024/01/21 08:11:55;;;;;;;;;2.50;2.50;;;;;19.03;35.94;102016.59;6338968;22;45331;-74
2024/01/21 08:14:20;;;;;;;;;5.50;5.50;;;;;19.01;36.36;102015.91;6369173;22;45403;-75
2024/01/21 08:16:45;;;;;;;;;5.00;5.00;;;;;19.00;35.90;102013.38;6368174;22;45217;-75
2024/01/21 08:19:11;;;;;;;;;5.25;5.25;;;;;19.00;36.27;102021.28;6368230;22;46214;-76
2024/01/21 08:21:36;;;;;;;;;9.50;8.00;;;;;19.02;36.22;102035.19;6368338;22;56531;-75
2024/01/21 08:24:02;;;;;;;;;5.00;5.00;;;;;19.01;36.43;102026.44;6368864;22;45319;-76
2024/01/21 08:26:27;;;;;;;;;6.50;6.50;;;;;19.02;36.20;102037.84;6368495;22;45216;-76
2024/01/21 08:28:53;;;;;;;;;7.00;6.00;;;;;19.00;35.98;102039.75;6368621;22;45321;-74
2024/01/21 08:31:18;;;;;;;;;3.00;3.00;;;;;18.97;36.29;102027.66;6368142;22;45247;-75
2024/01/21 08:33:43;;;;;;;;;5.00;5.00;;;;;18.99;36.20;102022.28;6368401;22;45516;-75
2024/01/21 08:36:09;;;;;;;;;7.25;6.00;;;;;18.99;36.23;102024.91;6368468;22;45311;-75
2024/01/21 08:38:35;;;;;;;;;6.00;6.00;;;;;18.98;36.07;102033.78;6368108;22;47074;-75
2024/01/21 08:41:00;;;;;;;;;6.25;6.25;;;;;18.98;36.05;102042.53;6339989;22;45283;-76
2024/01/21 08:43:26;;;;;;;;;5.75;4.50;;;;;18.99;36.19;102032.81;6368681;22;45170;-75
2024/01/21 08:45:51;;;;;;;;;4.00;4.00;;;;;18.99;36.40;102032.81;6367898;22;45406;-74
2024/01/21 08:48:16;;;;;;;;;7.00;4.75;;;;;18.99;36.07;102040.72;6368468;22;46059;-75
2024/01/21 08:50:42;;;;;;;;;7.00;5.00;;;;;18.98;36.39;102039.88;6368313;22;45328;-76
2024/01/21 08:53:08;;;;;;;;;7.00;6.00;;;;;18.98;36.37;102029.34;6368387;22;45244;-75
2024/01/21 08:55:33;;;;;;;;;5.25;5.25;;;;;18.94;36.37;102015.56;6368811;22;45389;-75
2024/01/21 08:57:58;;;;;;;;;6.25;5.25;;;;;18.94;36.29;102018.19;6368041;22;46069;-75
2024/01/21 09:00:23;;;;;;;;;5.75;5.75;;;;;18.97;36.30;102011.84;6339357;22;45375;-75
2024/01/21 09:02:49;;;;;;;;;6.75;5.50;;;;;18.97;36.01;102008.38;6368272;22;45303;-75
2024/01/21 09:05:14;;;;;;;;;5.00;5.00;;;;;18.97;36.32;101993.38;6368703;22;45369;-76
2024/01/21 09:07:39;;;;;;;;;5.00;5.00;;;;;18.98;36.43;102002.13;6368521;22;45740;-75
2024/01/21 09:10:07;;;;;;;;;4.00;4.00;;;;;18.97;36.32;102013.66;6368623;22;45161;-75
2024/01/21 09:12:33;;;;;;;;;5.50;5.50;;;;;18.99;36.29;102019.63;6368072;22;45185;-76
2024/01/21 09:14:58;;;;;;;;;5.50;3.75;;;;;18.93;36.45;102026.25;6367508;22;45151;-75
2024/01/21 09:17:23;;;;;;;;;5.00;5.00;;;;;18.92;36.55;102043.88;6368193;22;45994;-75
2024/01/21 09:19:48;;;;;;;;;5.75;5.75;;;;;18.99;36.55;102059.19;6368497;22;45307;-75
2024/01/21 09:22:14;;;;;;;;;5.75;5.00;;;;;18.98;36.39;102063.63;6368432;22;45166;-75
2024/01/21 09:24:39;;;;;;;;;5.50;5.50;;;;;18.99;36.24;102064.47;6367869;22;45439;-75
2024/01/21 09:27:05;;;;;;;;;6.50;5.25;;;;;19.00;36.12;102066.97;6368436;22;45276;-75
2024/01/21 09:29:30;;;;;;;;;6.25;5.25;;;;;19.00;36.43;102060.84;6367700;22;45416;-75
2024/01/21 09:31:57;;;;;;;;;7.75;6.00;;;;;19.01;36.24;102050.19;6368151;22;45326;-76
2024/01/21 09:34:22;;;;;;;;;4.50;4.50;;;;;19.02;36.46;102054.47;6368654;22;45338;-76
2024/01/21 09:36:49;;;;;;;;;4.75;4.75;;;;;19.02;36.25;102051.84;6368277;22;45312;-76
2024/01/21 09:39:14;;;;;;;;;7.00;6.00;;;;;19.02;36.48;102046.56;6368515;22;45321;-76
2024/01/21 09:41:49;;;;;;;;;7.50;6.00;;;;;19.04;36.41;102039.38;6367489;22;45767;-75
2024/01/21 09:44:19;;;;;;;;;5.50;5.25;;;;;19.03;36.32;102042.13;6368097;22;45376;-75
2024/01/21 09:46:52;;;;;;;;;5.75;4.25;;;;;19.04;36.15;102038.53;6368188;22;45920;-76
2024/01/21 09:49:19;;;;;;;;;6.25;5.00;;;;;19.04;36.41;102041.19;6367794;22;45396;-75
2024/01/21 09:51:46;;;;;;;;;5.00;5.00;;;;;19.04;36.24;102043.81;6368149;22;45250;-76
2024/01/21 09:54:12;;;;;;;;;5.75;5.75;;;;;19.04;36.13;102030.63;6368441;22;45316;-75
2024/01/21 09:56:38;;;;;;;;;6.25;5.50;;;;;19.02;36.15;102036.00;6367676;22;45751;-76
2024/01/21 09:59:05;;;;;;;;;5.75;5.75;;;;;19.04;36.19;102030.63;6368290;22;45281;-75
2024/01/21 10:01:31;;;;;;;;;4.75;2.00;;;;;19.04;36.41;102026.19;6367695;22;45358;-75
2024/01/21 10:03:56;;;;;;;;;7.00;5.00;;;;;18.98;36.16;102025.88;6367944;22;45157;-76
2024/01/21 10:06:22;;;;;;;;;5.25;5.25;;;;;18.98;36.58;102029.34;6367373;22;60224;-76
2024/01/21 10:08:47;;;;;;;;;4.50;4.50;;;;;18.95;36.62;102017.25;6368439;22;45235;-74
2024/01/21 10:11:12;;;;;;;;;4.50;4.50;;;;;18.94;36.41;102009.47;6368116;22;45735;-76
2024/01/21 10:13:42;;;;;;;;;5.00;4.00;;;;;19.04;36.17;102035.91;6339871;22;45172;-76
2024/01/21 10:16:09;;;;;;;;;5.50;5.00;;;;;19.03;36.52;102026.31;6368125;22;45315;-76
2024/01/21 10:18:35;;;;;;;;;4.50;4.00;;;;;19.02;36.41;102027.28;6367628;22;45178;-74
2024/01/21 10:21:05;;;;;;;;;7.50;6.00;;;;;19.02;36.53;102033.38;6367745;22;45153;-76
2024/01/21 10:23:30;;;;;;;;;7.50;5.00;;;;;19.01;36.52;102029.09;6367774;22;45405;-76
2024/01/21 10:25:56;;;;;;;;;6.00;6.00;;;;;18.99;36.46;102022.28;6367398;22;45249;-75
2024/01/21 10:28:22;;;;;;;;;5.00;5.00;;;;;19.01;36.41;102030.88;6367193;22;56584;-76
2024/01/21 10:30:48;;;;;;;;;4.50;3.25;;;;;19.00;36.55;102027.41;6368206;22;45312;-75
2024/01/21 10:33:13;;;;;;;;;7.25;5.50;;;;;19.02;36.49;102032.56;6339549;22;45268;-76
2024/01/21 10:35:42;;;;;;;;;7.00;4.75;;;;;19.01;36.18;102049.34;6367245;22;46369;-74
2024/01/21 10:38:11;;;;;;;;;6.50;5.25;;;;;19.01;36.29;102051.97;6368219;22;45229;-76
2024/01/21 10:40:43;;;;;;;;;8.00;6.00;;;;;19.01;36.53;102050.19;6367699;22;45377;-75
2024/01/21 10:43:12;;;;;;;;;4.75;4.75;;;;;18.95;36.67;102035.72;6367305;22;45394;-75
2024/01/21 10:45:38;;;;;;;;;6.50;5.00;;;;;18.88;36.57;102039.84;6367837;22;45324;-76
2024/01/21 10:48:05;;;;;;;;;6.00;5.00;;;;;19.00;36.39;102061.69;6367954;22;45309;-75
2024/01/21 10:50:30;;;;;;;;;5.00;4.00;;;;;19.00;36.43;102035.31;6368124;22;45279;-75
2024/01/21 10:52:56;;;;;;;;;4.00;3.00;;;;;19.02;36.76;102053.66;6368149;22;45393;-75
2024/01/21 10:55:22;;;;;;;;;3.25;3.25;;;;;18.97;36.63;102035.56;6367767;22;45436;-75
2024/01/21 10:57:47;;;;;;;;;4.75;3.50;;;;;19.00;36.43;102035.31;6367614;22;45200;-75
2024/01/21 11:00:15;;;;;;;;;4.25;4.25;;;;;19.01;36.71;102033.53;6368176;22;45244;-75
2024/01/21 11:02:40;;;;;;;;;4.25;4.25;;;;;19.00;36.63;102047.66;6367437;22;45461;-75
2024/01/21 11:05:05;;;;;;;;;7.25;5.00;;;;;18.93;36.38;102039.44;6367488;22;45344;-75
2024/01/21 11:07:32;;;;;;;;;4.00;4.00;;;;;18.96;36.39;102044.47;6367950;22;45329;-76
2024/01/21 11:09:57;;;;;;;;;5.75;4.75;;;;;18.99;36.52;102057.41;6367069;22;45256;-76
2024/01/21 11:12:23;;;;;;;;;5.00;5.00;;;;;18.89;36.63;102044.13;6338436;22;45322;-75
2024/01/21 11:14:49;;;;;;;;;4.00;4.00;;;;;19.00;36.75;102060.84;6367276;22;45832;-75